Peabody, KS (66866)

2:58 PM CDT on August 26, 2016 (GMT -0500)
APRSWXNET | | Change Station

Elev 1515 ft 38.18 °N, 97.30 °W | Updated 23 minutes ago

Mostly Cloudy
Mostly Cloudy
81 °F
Feels Like 84 °F
N
2
Wind Variable Wind from ESE
Gusts 5.0 mph

Today
High -- | Low -- °F
--% Chance of Precip.
Yesterday
High -- | Low -- °F
Precip. -- in
Pressure 30.01 in
Visibility 10.0 miles
Clouds Scattered Clouds 3000 ft
Mostly Cloudy 3800 ft
Heat Index 84 °F
Dew Point 67 °F
Humidity 63%
Rainfall in
Snow Depth Not available.
6:53 AM 8:06 PM
Waning Crescent, 32% visible
METAR KEWK 261956Z AUTO 17004KT 10SM SCT030 BKN038 26/19 A3005 RMK AO2 SLP163 T02560194
Pressure 30.01 in
Visibility 10.0 miles
Clouds Scattered Clouds 3000 ft
Mostly Cloudy 3800 ft
Heat Index 84 °F
Dew Point 67 °F
Humidity 63%
Rainfall in
Snow Depth Not available.
6:53 AM 8:06 PM
Waning Crescent, 32% visible
METAR KEWK 261956Z AUTO 17004KT 10SM SCT030 BKN038 26/19 A3005 RMK AO2 SLP163 T02560194

10-Day Weather Forecast

Almanac

Astronomy

Aug. 26, 2016 Rise Set
Actual Time
Civil Twilight
Nautical Twilight
Astronomical Twilight
Moon
Length of Visible Light
Length of Day
Tomorrow will be .
, % of the Moon is Illuminated

Today's Extremes

State Highs State Lows

Community

WunderPhotos

Upload Photos

1,935,195 photos uploaded!

WunderBlog® & News

Nearby

Air Quality

  Air Quality AQ Index Pollutant
Not available.

Snow Depth

Station Depth Elevation

Earthquake Activity

City Distance Mag. Time & Date
Minimum magnitude displayed is 2.5.

Coastal Water Temperatures

Place Temperature

Stations

Nearby Weather Stations

Station Location Temp. Windchill Dew Point Humidity Wind Precip. Elev Updated Type
                   

Watches & Warnings

There are currently no watches in effect.